createdAt,value
2023-05-08T00:01:05.630Z,10.00
2023-05-08T00:03:33.148Z,10.00
2023-05-08T00:06:03.883Z,10.00
2023-05-08T00:08:30.814Z,10.00
2023-05-08T00:10:57.660Z,10.00
2023-05-08T00:13:24.655Z,10.00
2023-05-08T00:15:51.640Z,10.10
2023-05-08T00:18:18.548Z,10.10
2023-05-08T00:20:45.438Z,10.00
2023-05-08T00:23:12.389Z,10.00
2023-05-08T00:25:39.312Z,9.90
2023-05-08T00:28:06.221Z,9.90
2023-05-08T00:30:33.100Z,10.00
2023-05-08T00:32:59.969Z,10.00
2023-05-08T00:35:26.920Z,9.80
2023-05-08T00:37:53.699Z,9.80
2023-05-08T00:40:20.585Z,9.70
2023-05-08T00:42:47.593Z,9.80
2023-05-08T00:45:14.381Z,9.70
2023-05-08T00:47:42.276Z,9.60
2023-05-08T00:50:10.276Z,9.50
2023-05-08T00:52:37.715Z,9.50
2023-05-08T00:55:06.625Z,9.60
2023-05-08T00:57:36.882Z,9.60
2023-05-08T01:00:05.727Z,9.50
2023-05-08T01:02:33.887Z,9.40
2023-05-08T01:05:00.855Z,9.50
2023-05-08T01:07:28.135Z,9.50
2023-05-08T01:09:55.022Z,9.50
2023-05-08T01:12:21.893Z,9.50
2023-05-08T01:15:06.442Z,9.40
2023-05-08T01:17:52.092Z,9.30
2023-05-08T01:20:36.938Z,9.40
2023-05-08T01:23:27.668Z,9.40
2023-05-08T01:26:22.123Z,9.30
2023-05-08T01:29:09.925Z,9.20
2023-05-08T01:32:12.420Z,9.10
2023-05-08T01:34:49.969Z,9.00
2023-05-08T01:37:26.856Z,9.10
2023-05-08T01:40:05.656Z,9.10
2023-05-08T01:43:02.150Z,9.30
2023-05-08T01:45:39.228Z,9.30
2023-05-08T01:48:10.975Z,9.20
2023-05-08T01:50:51.122Z,9.20
2023-05-08T01:53:26.259Z,9.30
2023-05-08T01:55:57.265Z,9.20
2023-05-08T01:58:26.136Z,9.30
2023-05-08T02:00:53.664Z,9.30
2023-05-08T02:03:23.215Z,9.30
2023-05-08T02:05:52.527Z,9.30
2023-05-08T02:08:21.840Z,9.30
2023-05-08T02:10:51.082Z,9.10
2023-05-08T02:13:21.501Z,9.10
2023-05-08T02:15:50.047Z,9.10
2023-05-08T02:18:21.140Z,9.10
2023-05-08T02:20:50.583Z,9.00
2023-05-08T02:23:19.237Z,9.00
2023-05-08T02:25:47.152Z,8.90
2023-05-08T02:28:16.614Z,8.90
2023-05-08T02:30:44.903Z,8.80
2023-05-08T02:33:13.997Z,8.80
2023-05-08T02:35:43.767Z,8.80
2023-05-08T02:38:11.955Z,8.90
2023-05-08T02:40:48.376Z,8.90
2023-05-08T02:43:15.377Z,8.90
2023-05-08T02:46:13.493Z,8.90
2023-05-08T02:48:58.215Z,8.80
2023-05-08T02:51:53.802Z,8.70
2023-05-08T02:54:43.412Z,8.80
2023-05-08T02:57:30.488Z,8.70
2023-05-08T03:00:05.108Z,8.70
2023-05-08T03:02:49.877Z,8.60
2023-05-08T03:05:26.076Z,8.60
2023-05-08T03:07:55.932Z,8.50
2023-05-08T03:10:29.514Z,8.50
2023-05-08T03:12:58.074Z,8.50
2023-05-08T03:15:43.503Z,8.50
2023-05-08T03:18:20.327Z,8.50
2023-05-08T03:20:51.137Z,8.50
2023-05-08T03:23:21.586Z,8.50
2023-05-08T03:25:48.526Z,8.60
2023-05-08T03:28:15.996Z,8.60
2023-05-08T03:30:43.680Z,8.60
2023-05-08T03:33:12.308Z,8.70
2023-05-08T03:35:39.753Z,8.60
2023-05-08T03:38:07.989Z,8.60
2023-05-08T03:40:38.947Z,8.50
2023-05-08T03:43:09.677Z,8.50
2023-05-08T03:45:38.819Z,8.50
2023-05-08T03:48:07.927Z,8.50
2023-05-08T03:50:36.710Z,8.50
2023-05-08T03:53:04.106Z,8.50
2023-05-08T03:55:32.026Z,8.60
2023-05-08T03:58:15.088Z,8.60
2023-05-08T04:00:59.393Z,8.50
2023-05-08T04:04:04.606Z,8.50
2023-05-08T04:06:52.797Z,8.50
2023-05-08T04:09:44.470Z,8.50
2023-05-08T04:12:18.472Z,8.50
2023-05-08T04:14:56.703Z,8.60
2023-05-08T04:17:34.866Z,8.60
2023-05-08T04:20:04.602Z,8.60
2023-05-08T04:22:34.588Z,8.70
2023-05-08T04:25:05.788Z,8.70
2023-05-08T04:27:33.124Z,8.70
2023-05-08T04:30:01.117Z,8.60
2023-05-08T04:32:30.234Z,8.60
2023-05-08T04:34:58.858Z,8.60
2023-05-08T04:37:31.379Z,8.60
2023-05-08T04:39:59.764Z,8.70
2023-05-08T04:42:27.060Z,8.70
2023-05-08T04:44:54.699Z,8.80
2023-05-08T04:47:22.126Z,8.90
2023-05-08T04:49:49.142Z,8.90
2023-05-08T04:52:16.031Z,8.90
2023-05-08T04:54:42.843Z,8.90
2023-05-08T04:57:09.761Z,9.00
2023-05-08T04:59:36.787Z,9.10
2023-05-08T05:02:06.053Z,9.10
2023-05-08T05:04:33.004Z,9.10
2023-05-08T05:07:00.232Z,9.20
2023-05-08T05:09:27.114Z,9.30
2023-05-08T05:11:54.340Z,9.40
2023-05-08T05:14:22.100Z,9.40
2023-05-08T05:16:48.909Z,9.40
2023-05-08T05:19:15.733Z,9.50
2023-05-08T05:21:42.655Z,9.50
2023-05-08T05:24:09.548Z,9.60
2023-05-08T05:26:36.910Z,9.60
2023-05-08T05:29:04.046Z,9.70
2023-05-08T05:31:30.941Z,9.70
2023-05-08T05:33:58.471Z,9.80
2023-05-08T05:36:25.331Z,9.80
2023-05-08T05:38:52.194Z,9.90
2023-05-08T05:41:19.143Z,10.10
2023-05-08T05:43:45.998Z,10.50
2023-05-08T05:46:13.169Z,10.80
2023-05-08T05:48:40.242Z,10.90
2023-05-08T05:51:07.137Z,11.00
2023-05-08T05:53:34.019Z,11.50
2023-05-08T05:56:00.873Z,12.20
2023-05-08T05:58:28.650Z,12.30
2023-05-08T06:00:55.804Z,12.60
2023-05-08T06:03:22.780Z,12.70
2023-05-08T06:05:49.707Z,13.00
2023-05-08T06:08:17.920Z,13.70
2023-05-08T06:10:44.881Z,13.50
2023-05-08T06:13:11.816Z,13.50
2023-05-08T06:15:38.694Z,13.90
2023-05-08T06:18:05.947Z,14.10
2023-05-08T06:20:32.848Z,14.00
2023-05-08T06:22:59.723Z,13.90
2023-05-08T06:25:28.150Z,13.80
2023-05-08T06:27:55.056Z,14.00
2023-05-08T06:30:21.961Z,14.00
2023-05-08T06:32:49.109Z,13.80
2023-05-08T06:35:18.607Z,13.90
2023-05-08T06:37:46.620Z,14.60
2023-05-08T06:40:13.920Z,14.80
2023-05-08T06:42:41.339Z,14.90
2023-05-08T06:45:11.460Z,15.30
2023-05-08T06:47:38.657Z,15.20
2023-05-08T06:50:06.203Z,15.90
2023-05-08T06:52:33.422Z,15.70
2023-05-08T06:55:00.331Z,15.80
2023-05-08T06:57:29.292Z,15.60
2023-05-08T06:59:56.996Z,15.20
2023-05-08T07:02:23.948Z,15.90
2023-05-08T07:04:50.891Z,16.20
2023-05-08T07:07:17.789Z,16.30
2023-05-08T07:09:44.769Z,16.20
2023-05-08T07:12:11.631Z,15.80
2023-05-08T07:14:38.451Z,16.50
2023-05-08T07:17:07.010Z,16.00
2023-05-08T07:19:38.088Z,15.70
2023-05-08T07:22:05.796Z,16.20
2023-05-08T07:24:33.224Z,16.40
2023-05-08T07:27:00.231Z,16.80
2023-05-08T07:29:27.352Z,16.90
2023-05-08T07:31:54.427Z,16.70
2023-05-08T07:34:21.393Z,16.60
2023-05-08T07:36:48.199Z,16.50
2023-05-08T07:39:15.098Z,17.10
2023-05-08T07:41:42.053Z,17.30
2023-05-08T07:44:09.469Z,17.10
2023-05-08T07:46:37.125Z,17.30
2023-05-08T07:49:04.195Z,18.00
2023-05-08T07:51:31.725Z,18.50
2023-05-08T07:53:58.666Z,18.50
2023-05-08T07:56:25.614Z,18.40
2023-05-08T07:58:52.476Z,18.80
2023-05-08T08:01:19.364Z,18.10
2023-05-08T08:03:47.040Z,17.70
2023-05-08T08:06:14.483Z,18.10
2023-05-08T08:08:41.410Z,18.80
2023-05-08T08:11:08.610Z,19.20
2023-05-08T08:13:35.658Z,18.60
2023-05-08T08:16:04.185Z,19.00
2023-05-08T08:18:35.164Z,18.90
2023-05-08T08:21:04.904Z,18.80
2023-05-08T08:23:31.918Z,18.40
2023-05-08T08:25:58.991Z,17.60
2023-05-08T08:28:25.865Z,17.70
2023-05-08T08:30:52.733Z,18.30
2023-05-08T08:33:19.589Z,18.40
2023-05-08T08:35:46.630Z,18.20
2023-05-08T08:38:13.519Z,17.80
2023-05-08T08:40:41.400Z,18.20
2023-05-08T08:43:09.571Z,18.80
2023-05-08T08:45:39.562Z,19.20
2023-05-08T08:48:11.602Z,19.10
2023-05-08T08:50:44.131Z,18.60
2023-05-08T08:53:21.577Z,18.60
2023-05-08T08:55:52.432Z,18.80
2023-05-08T08:58:36.554Z,18.60
2023-05-08T09:01:07.751Z,18.70
2023-05-08T09:03:34.906Z,19.40
2023-05-08T09:06:02.683Z,19.70
2023-05-08T09:08:29.931Z,20.00
2023-05-08T09:10:56.907Z,20.50
2023-05-08T09:13:24.000Z,20.40
2023-05-08T09:15:51.069Z,20.30
2023-05-08T09:18:19.248Z,20.20
2023-05-08T09:20:46.577Z,19.80
2023-05-08T09:23:17.265Z,19.90
2023-05-08T09:25:46.226Z,19.70
2023-05-08T09:28:17.725Z,20.10
2023-05-08T09:30:56.293Z,20.50
2023-05-08T09:33:25.506Z,20.20
2023-05-08T09:35:53.156Z,19.50
2023-05-08T09:38:37.736Z,20.10
2023-05-08T09:41:10.629Z,20.70
2023-05-08T09:43:38.745Z,20.30
2023-05-08T09:46:25.841Z,20.30
2023-05-08T09:49:01.268Z,21.00
2023-05-08T09:51:31.227Z,20.10
2023-05-08T09:53:59.449Z,20.10
2023-05-08T09:56:40.290Z,20.10
2023-05-08T09:59:27.235Z,19.90
2023-05-08T10:01:54.816Z,19.70
2023-05-08T10:04:37.785Z,20.30
2023-05-08T10:07:05.154Z,20.20
2023-05-08T10:09:42.475Z,20.10
2023-05-08T10:12:16.903Z,20.30
2023-05-08T10:14:46.373Z,20.20
2023-05-08T10:17:17.957Z,20.70
2023-05-08T10:19:48.446Z,20.90
2023-05-08T10:22:18.240Z,20.60
2023-05-08T10:24:49.710Z,20.30
2023-05-08T10:27:31.977Z,19.40
2023-05-08T10:30:04.233Z,19.30
2023-05-08T10:32:40.728Z,19.70
2023-05-08T10:35:10.345Z,19.60
2023-05-08T10:37:39.036Z,20.10
2023-05-08T10:40:06.823Z,20.80
2023-05-08T10:42:37.627Z,20.80
2023-05-08T10:45:08.379Z,21.00
2023-05-08T10:47:59.826Z,20.30
2023-05-08T10:50:57.090Z,20.40
2023-05-08T10:53:29.653Z,20.40
2023-05-08T10:55:56.614Z,20.40
2023-05-08T10:58:23.508Z,20.30
2023-05-08T11:00:56.535Z,20.70
2023-05-08T11:03:32.105Z,21.10
2023-05-08T11:06:01.687Z,21.20
2023-05-08T11:08:30.048Z,20.90
2023-05-08T11:11:06.176Z,20.60
2023-05-08T11:13:35.724Z,20.40
2023-05-08T11:16:03.634Z,20.50
2023-05-08T11:18:42.283Z,21.30
2023-05-08T11:21:21.771Z,21.30
2023-05-08T11:23:57.957Z,20.90
2023-05-08T11:26:40.137Z,21.10
2023-05-08T11:29:16.912Z,21.00
2023-05-08T11:31:51.163Z,21.30
2023-05-08T11:34:43.579Z,21.70
2023-05-08T11:37:21.703Z,21.60
2023-05-08T11:39:49.159Z,21.60
2023-05-08T11:42:25.109Z,21.50
2023-05-08T11:45:08.854Z,21.50
2023-05-08T11:47:43.959Z,21.00
2023-05-08T11:50:13.049Z,20.40
2023-05-08T11:52:41.674Z,20.50
2023-05-08T11:55:11.034Z,20.70
2023-05-08T11:57:38.397Z,21.10
2023-05-08T12:00:09.973Z,21.00
2023-05-08T12:02:45.952Z,21.00
2023-05-08T12:05:13.010Z,21.00
2023-05-08T12:07:44.598Z,21.20
2023-05-08T12:10:11.669Z,20.70
2023-05-08T12:12:43.418Z,20.90
2023-05-08T12:15:12.285Z,21.00
2023-05-08T12:17:39.734Z,21.50
2023-05-08T12:20:25.935Z,21.30
2023-05-08T12:22:53.529Z,21.20
2023-05-08T12:25:20.558Z,21.40
2023-05-08T12:27:47.787Z,21.40
2023-05-08T12:30:16.194Z,21.30
2023-05-08T12:32:44.445Z,21.00
2023-05-08T12:35:13.139Z,21.00
2023-05-08T12:37:40.502Z,21.00
2023-05-08T12:40:08.487Z,20.90
2023-05-08T12:42:43.084Z,21.00
2023-05-08T12:45:17.442Z,21.00
2023-05-08T12:47:49.269Z,21.10
2023-05-08T12:50:17.671Z,20.90
2023-05-08T12:52:45.105Z,20.40
2023-05-08T12:55:24.972Z,20.40
2023-05-08T12:58:04.383Z,20.60
2023-05-08T13:00:43.972Z,20.70
2023-05-08T13:03:12.516Z,20.80
2023-05-08T13:05:44.789Z,21.10
2023-05-08T13:08:12.009Z,21.20
2023-05-08T13:10:51.882Z,21.10
2023-05-08T13:13:27.308Z,21.00
2023-05-08T13:15:55.517Z,21.20
2023-05-08T13:18:26.543Z,21.20
2023-05-08T13:20:54.962Z,21.10
2023-05-08T13:23:22.099Z,21.20
2023-05-08T13:25:49.459Z,21.10
2023-05-08T13:28:16.372Z,21.10
2023-05-08T13:30:43.357Z,20.90
2023-05-08T13:33:10.356Z,20.90
2023-05-08T13:35:37.345Z,20.90
2023-05-08T13:38:04.173Z,20.80
2023-05-08T13:40:31.381Z,20.90
2023-05-08T13:42:58.291Z,20.80
2023-05-08T13:45:25.361Z,20.80
2023-05-08T13:47:52.312Z,20.80
2023-05-08T13:50:21.598Z,20.70
2023-05-08T13:52:49.449Z,20.70
2023-05-08T13:55:17.624Z,20.50
2023-05-08T13:57:44.641Z,20.40
2023-05-08T14:00:12.484Z,20.60
2023-05-08T14:02:39.448Z,20.70
2023-05-08T14:05:08.736Z,20.90
2023-05-08T14:07:36.081Z,20.80
2023-05-08T14:10:03.400Z,20.60
2023-05-08T14:12:30.727Z,20.60
2023-05-08T14:14:58.247Z,20.70
2023-05-08T14:17:25.448Z,20.70
2023-05-08T14:19:52.479Z,20.80
2023-05-08T14:22:19.368Z,20.50
2023-05-08T14:24:46.394Z,20.50
2023-05-08T14:27:13.339Z,20.40
2023-05-08T14:29:41.386Z,20.40
2023-05-08T14:32:09.443Z,20.40
2023-05-08T14:34:36.477Z,20.30
2023-05-08T14:37:03.472Z,20.10
2023-05-08T14:39:30.338Z,20.20
2023-05-08T14:42:18.395Z,20.30
2023-05-08T14:44:44.141Z,20.60
2023-05-08T14:47:11.067Z,20.70
2023-05-08T14:52:24.765Z,21.00
2023-05-08T14:54:53.822Z,21.00
2023-05-08T14:57:21.060Z,20.80
2023-05-08T14:59:54.880Z,20.60
2023-05-08T15:02:23.464Z,20.40
2023-05-08T15:04:50.452Z,20.20
2023-05-08T15:07:17.340Z,20.10
2023-05-08T15:09:44.228Z,19.90
2023-05-08T15:12:11.071Z,19.60
2023-05-08T15:14:37.957Z,19.60
2023-05-08T15:17:04.780Z,19.50
2023-05-08T15:19:31.673Z,19.60
2023-05-08T15:21:58.530Z,19.90
2023-05-08T15:24:25.460Z,19.90
2023-05-08T15:26:52.277Z,19.90
2023-05-08T15:29:19.146Z,19.90
2023-05-08T15:31:45.974Z,19.90
2023-05-08T15:34:12.937Z,20.00
2023-05-08T15:36:39.777Z,19.90
2023-05-08T15:39:07.032Z,19.90
2023-05-08T15:41:34.192Z,19.90
2023-05-08T15:44:01.059Z,19.90
2023-05-08T15:46:27.963Z,19.80
2023-05-08T15:48:54.800Z,19.90
2023-05-08T15:51:21.855Z,19.90
2023-05-08T15:53:48.767Z,19.90
2023-05-08T15:56:16.257Z,19.90
2023-05-08T15:58:43.067Z,20.00
2023-05-08T16:01:09.931Z,19.90
2023-05-08T16:03:36.907Z,19.90
2023-05-08T16:06:04.156Z,19.90
2023-05-08T16:08:31.153Z,19.90
2023-05-08T16:10:58.086Z,20.00
2023-05-08T16:13:24.976Z,20.10
2023-05-08T16:15:51.930Z,20.20
2023-05-08T16:18:18.808Z,20.30
2023-05-08T16:20:45.784Z,20.30
2023-05-08T16:23:14.526Z,20.30
2023-05-08T16:25:41.442Z,20.10
2023-05-08T16:28:08.300Z,20.00
2023-05-08T16:30:35.193Z,19.90
2023-05-08T16:33:02.201Z,19.90
2023-05-08T16:35:29.687Z,19.80
2023-05-08T16:37:56.594Z,19.70
2023-05-08T16:40:23.487Z,19.90
2023-05-08T16:42:51.117Z,19.80
2023-05-08T16:45:18.175Z,19.80
2023-05-08T16:47:45.075Z,19.80
2023-05-08T16:50:12.215Z,19.80
2023-05-08T16:52:39.079Z,19.70
2023-05-08T16:55:06.612Z,19.60
2023-05-08T16:57:33.494Z,19.50
2023-05-08T17:00:00.464Z,19.60
2023-05-08T17:02:27.570Z,19.70
2023-05-08T17:04:54.417Z,19.50
2023-05-08T17:07:21.284Z,19.40
2023-05-08T17:09:52.863Z,19.40
2023-05-08T17:12:19.761Z,19.40
2023-05-08T17:14:46.800Z,19.40
2023-05-08T17:17:13.864Z,19.30
2023-05-08T17:19:43.091Z,19.40
2023-05-08T17:22:10.056Z,19.40
2023-05-08T17:24:38.004Z,19.30
2023-05-08T17:27:08.421Z,19.40
2023-05-08T17:29:35.615Z,19.30
2023-05-08T17:32:02.645Z,19.20
2023-05-08T17:34:29.782Z,19.30
2023-05-08T17:36:56.701Z,19.10
2023-05-08T17:39:23.570Z,19.20
2023-05-08T17:41:51.854Z,19.20
2023-05-08T17:44:18.931Z,19.20
2023-05-08T17:46:46.215Z,19.20
2023-05-08T17:49:14.533Z,19.10
2023-05-08T17:51:41.959Z,18.90
2023-05-08T17:54:08.841Z,18.90
2023-05-08T17:56:35.738Z,18.80
2023-05-08T17:59:02.587Z,18.70
2023-05-08T18:01:29.692Z,18.60
2023-05-08T18:03:56.739Z,18.60
2023-05-08T18:06:23.704Z,18.50
2023-05-08T18:08:50.676Z,18.50
2023-05-08T18:11:22.395Z,18.40
2023-05-08T18:13:50.079Z,18.30
2023-05-08T18:16:18.780Z,18.30
2023-05-08T18:18:45.691Z,18.10
2023-05-08T18:21:13.085Z,18.10
2023-05-08T18:23:41.132Z,18.00
2023-05-08T18:26:08.173Z,17.90
2023-05-08T18:28:36.113Z,17.80
2023-05-08T18:31:03.358Z,17.70
2023-05-08T18:33:30.282Z,17.80
2023-05-08T18:35:57.198Z,17.60
2023-05-08T18:38:24.062Z,17.50
2023-05-08T18:40:50.897Z,17.40
2023-05-08T18:43:17.789Z,17.30
2023-05-08T18:45:44.634Z,17.20
2023-05-08T18:48:11.569Z,17.00
2023-05-08T18:50:38.694Z,16.90
2023-05-08T18:53:06.392Z,16.70
2023-05-08T18:55:33.275Z,16.80
2023-05-08T18:58:00.167Z,16.80
2023-05-08T19:00:27.271Z,16.70
2023-05-08T19:02:54.229Z,16.60
2023-05-08T19:05:21.237Z,16.40
2023-05-08T19:07:48.114Z,16.40
2023-05-08T19:10:15.731Z,16.30
2023-05-08T19:12:43.690Z,16.20
2023-05-08T19:15:13.629Z,16.10
2023-05-08T19:17:41.271Z,16.00
2023-05-08T19:20:08.634Z,15.80
2023-05-08T19:22:36.094Z,15.70
2023-05-08T19:25:04.217Z,15.70
2023-05-08T19:27:32.129Z,15.80
2023-05-08T19:29:59.247Z,15.80
2023-05-08T19:32:26.333Z,15.70
2023-05-08T19:34:55.321Z,15.90
2023-05-08T19:37:22.162Z,15.80
2023-05-08T19:39:49.016Z,15.70
2023-05-08T19:42:15.981Z,15.60
2023-05-08T19:44:42.990Z,15.60
2023-05-08T19:47:09.845Z,15.60
2023-05-08T19:49:36.696Z,15.50
2023-05-08T19:52:03.754Z,15.40
2023-05-08T19:54:33.320Z,15.40
2023-05-08T19:57:00.198Z,15.40
2023-05-08T19:59:27.656Z,15.30
2023-05-08T20:01:54.707Z,15.40
2023-05-08T20:04:21.769Z,15.30
2023-05-08T20:06:48.677Z,15.20
2023-05-08T20:09:15.779Z,15.20
2023-05-08T20:11:42.598Z,15.20
2023-05-08T20:14:09.545Z,15.20
2023-05-08T20:16:36.642Z,15.10
2023-05-08T20:19:03.762Z,15.00
2023-05-08T20:21:34.077Z,14.90
2023-05-08T20:24:01.150Z,15.00
2023-05-08T20:26:29.441Z,14.90
2023-05-08T20:28:57.343Z,14.80
2023-05-08T20:31:25.793Z,14.80
2023-05-08T20:33:53.124Z,14.90
2023-05-08T20:36:20.365Z,14.80
2023-05-08T20:38:47.392Z,14.80
2023-05-08T20:41:14.293Z,14.70
2023-05-08T20:43:41.156Z,14.70
2023-05-08T20:46:08.353Z,14.60
2023-05-08T20:48:35.366Z,14.60
2023-05-08T20:51:02.253Z,14.60
2023-05-08T20:53:29.299Z,14.50
2023-05-08T20:56:06.292Z,14.50
2023-05-08T20:58:33.222Z,14.40
2023-05-08T21:01:00.126Z,14.40
2023-05-08T21:03:27.241Z,14.40
2023-05-08T21:05:54.993Z,14.40
2023-05-08T21:08:23.647Z,14.40
2023-05-08T21:10:51.919Z,14.40
2023-05-08T21:13:19.224Z,14.20
2023-05-08T21:15:50.341Z,14.30
2023-05-08T21:18:17.526Z,14.20
2023-05-08T21:20:53.635Z,14.20
2023-05-08T21:23:20.835Z,14.20
2023-05-08T21:25:48.818Z,14.20
2023-05-08T21:28:16.507Z,14.20
2023-05-08T21:30:43.796Z,14.20
2023-05-08T21:33:11.840Z,14.20
2023-05-08T21:35:38.724Z,14.10
2023-05-08T21:38:05.778Z,14.10
2023-05-08T21:40:32.613Z,14.00
2023-05-08T21:43:00.163Z,14.00
2023-05-08T21:45:31.303Z,14.00
2023-05-08T21:47:58.868Z,14.00
2023-05-08T21:50:28.058Z,14.00
2023-05-08T21:52:56.528Z,14.00
2023-05-08T21:55:24.054Z,13.90
2023-05-08T21:57:51.122Z,13.90
2023-05-08T22:00:18.441Z,13.80
2023-05-08T22:02:45.523Z,13.90
2023-05-08T22:05:12.724Z,13.80
2023-05-08T22:07:39.910Z,13.70
2023-05-08T22:10:09.148Z,13.80
2023-05-08T22:12:36.183Z,13.80
2023-05-08T22:15:14.971Z,13.70
2023-05-08T22:17:50.542Z,13.70
2023-05-08T22:20:18.133Z,13.60
2023-05-08T22:22:45.331Z,13.60
2023-05-08T22:25:12.454Z,13.60
2023-05-08T22:27:39.617Z,13.60
2023-05-08T22:30:07.512Z,13.60
2023-05-08T22:32:34.737Z,13.60
2023-05-08T22:35:01.558Z,13.60
2023-05-08T22:37:28.414Z,13.50
2023-05-08T22:39:55.297Z,13.40
2023-05-08T22:42:22.244Z,13.40
2023-05-08T22:44:49.104Z,13.40
2023-05-08T22:47:16.406Z,13.40
2023-05-08T22:49:43.464Z,13.40
2023-05-08T22:52:10.518Z,13.40
2023-05-08T22:54:37.379Z,13.30
2023-05-08T22:57:04.220Z,13.30
2023-05-08T22:59:31.100Z,13.30
2023-05-08T23:01:58.092Z,13.20
2023-05-08T23:04:26.116Z,13.20
2023-05-08T23:06:53.009Z,13.20
2023-05-08T23:09:19.898Z,13.20
2023-05-08T23:11:47.441Z,13.20
2023-05-08T23:14:14.364Z,13.10
2023-05-08T23:16:41.448Z,13.10
2023-05-08T23:19:10.015Z,13.10
2023-05-08T23:21:37.069Z,13.10
2023-05-08T23:24:05.041Z,13.00
2023-05-08T23:26:31.864Z,13.00
2023-05-08T23:28:58.712Z,13.00
2023-05-08T23:31:25.673Z,13.00
2023-05-08T23:33:52.764Z,13.00
2023-05-08T23:36:19.662Z,12.90
2023-05-08T23:38:46.630Z,12.90
2023-05-08T23:41:13.946Z,12.80
2023-05-08T23:43:41.017Z,12.80
2023-05-08T23:46:08.045Z,12.90
2023-05-08T23:48:34.988Z,12.80
2023-05-08T23:51:01.832Z,12.80
2023-05-08T23:53:28.690Z,12.70
2023-05-08T23:55:56.231Z,12.70
2023-05-08T23:58:23.078Z,12.70
